createdAt,value
2023-10-12T00:02:34.101Z,16.47
2023-10-12T00:06:43.903Z,16.41
2023-10-12T00:10:42.381Z,16.38
2023-10-12T00:14:52.063Z,16.34
2023-10-12T00:18:42.758Z,16.31
2023-10-12T00:22:37.915Z,16.27
2023-10-12T00:26:46.421Z,16.25
2023-10-12T00:30:45.565Z,16.20
2023-10-12T00:34:53.846Z,16.15
2023-10-12T00:38:48.037Z,16.14
2023-10-12T00:42:42.648Z,16.15
2023-10-12T00:46:52.417Z,16.14
2023-10-12T00:51:01.844Z,16.13
2023-10-12T00:54:38.049Z,16.11
2023-10-12T00:58:47.907Z,16.09
2023-10-12T01:02:43.704Z,16.08
2023-10-12T01:06:40.024Z,16.07
2023-10-12T01:10:51.113Z,16.08
2023-10-12T01:15:00.664Z,16.09
2023-10-12T01:18:50.279Z,16.09
2023-10-12T01:22:57.448Z,16.07
2023-10-12T01:26:55.752Z,16.02
2023-10-12T01:30:53.850Z,16.01
2023-10-12T01:35:06.192Z,15.99
2023-10-12T01:39:07.112Z,15.96
2023-10-12T01:43:13.394Z,15.90
2023-10-12T01:47:23.000Z,15.86
2023-10-12T01:51:32.583Z,15.82
2023-10-12T01:55:45.213Z,15.78
2023-10-12T01:59:54.824Z,15.74
2023-10-12T02:03:53.009Z,15.72
2023-10-12T02:08:02.690Z,15.70
2023-10-12T02:12:06.171Z,15.70
2023-10-12T02:16:05.942Z,15.69
2023-10-12T02:19:36.871Z,15.66
2023-10-12T02:23:45.989Z,15.63
2023-10-12T02:27:55.311Z,15.59
2023-10-12T02:32:12.741Z,15.55
2023-10-12T02:36:21.041Z,15.52
2023-10-12T02:40:30.743Z,15.48
2023-10-12T02:44:33.749Z,15.44
2023-10-12T02:48:46.381Z,15.42
2023-10-12T02:52:31.993Z,15.44
2023-10-12T02:56:41.705Z,15.48
2023-10-12T03:00:41.732Z,15.49
2023-10-12T03:04:39.086Z,15.52
2023-10-12T03:08:30.496Z,15.49
2023-10-12T03:12:40.385Z,15.40
2023-10-12T03:16:23.620Z,15.36
2023-10-12T03:20:39.634Z,15.28
2023-10-12T03:24:50.205Z,15.22
2023-10-12T03:28:51.084Z,15.11
2023-10-12T03:33:00.661Z,14.91
2023-10-12T03:36:45.519Z,14.75
2023-10-12T03:40:25.730Z,14.65
2023-10-12T03:44:25.073Z,14.51
2023-10-12T03:58:05.635Z,14.30
2023-10-12T04:01:47.658Z,14.18
2023-10-12T04:05:57.295Z,14.08
2023-10-12T04:09:44.686Z,14.00
2023-10-12T04:13:48.592Z,13.98
2023-10-12T04:17:29.493Z,13.92
2023-10-12T04:21:35.408Z,13.85
2023-10-12T04:25:49.366Z,13.73
2023-10-12T04:29:42.312Z,13.67
2023-10-12T04:34:06.135Z,13.66
2023-10-12T04:37:55.605Z,13.59
2023-10-12T04:41:54.081Z,13.53
2023-10-12T04:45:16.889Z,13.49
2023-10-12T04:48:22.441Z,13.43
2023-10-12T04:51:22.792Z,13.36
2023-10-12T04:54:19.989Z,13.36
2023-10-12T04:57:08.058Z,13.37
2023-10-12T04:59:50.114Z,13.36
2023-10-12T05:02:49.431Z,13.32
2023-10-12T05:06:10.704Z,13.28
2023-10-12T05:08:57.354Z,13.25
2023-10-12T05:11:49.296Z,13.21
2023-10-12T05:14:47.675Z,13.16
2023-10-12T05:18:11.434Z,13.11
2023-10-12T05:21:45.588Z,13.06
2023-10-12T05:24:56.583Z,13.05
2023-10-12T05:27:40.860Z,13.05
2023-10-12T05:31:26.639Z,13.04
2023-10-12T05:34:34.194Z,13.03
2023-10-12T05:38:33.969Z,13.02
2023-10-12T05:41:58.805Z,13.01
2023-10-12T05:45:35.099Z,12.99
2023-10-12T05:48:18.790Z,13.00
2023-10-12T05:51:12.173Z,13.03
2023-10-12T05:54:06.407Z,13.04
2023-10-12T05:57:13.818Z,13.04
2023-10-12T06:00:18.144Z,13.06
2023-10-12T06:03:58.992Z,13.09
2023-10-12T06:06:54.309Z,13.09
2023-10-12T06:09:43.302Z,13.10
2023-10-12T06:12:49.170Z,13.10
2023-10-12T06:15:57.289Z,13.09
2023-10-12T06:19:26.525Z,13.12
2023-10-12T06:22:33.479Z,13.17
2023-10-12T06:26:49.225Z,13.20
2023-10-12T06:29:29.393Z,13.23
2023-10-12T06:32:44.147Z,13.28
2023-10-12T06:36:17.314Z,13.29
2023-10-12T06:40:14.873Z,13.33
2023-10-12T06:43:36.953Z,13.34
2023-10-12T06:46:44.994Z,13.34
2023-10-12T06:50:01.567Z,13.36
2023-10-12T06:52:49.110Z,13.36
2023-10-12T06:56:13.742Z,13.36
2023-10-12T06:59:35.843Z,13.40
2023-10-12T07:02:38.399Z,13.39
2023-10-12T07:05:22.018Z,13.41
2023-10-12T07:08:41.377Z,13.40
2023-10-12T07:11:54.906Z,13.43
2023-10-12T07:15:12.817Z,13.48
2023-10-12T07:18:08.056Z,13.50
2023-10-12T07:20:36.767Z,13.51
2023-10-12T07:23:35.186Z,13.51
2023-10-12T07:26:32.213Z,13.50
2023-10-12T07:29:44.745Z,13.53
2023-10-12T07:32:34.159Z,13.53
2023-10-12T07:36:18.268Z,13.54
2023-10-12T07:39:40.179Z,13.58
2023-10-12T07:42:49.045Z,13.62
2023-10-12T07:46:11.453Z,13.66
2023-10-12T07:50:31.221Z,13.71
2023-10-12T07:54:22.440Z,13.73
2023-10-12T07:58:33.900Z,13.74
2023-10-12T08:02:43.548Z,13.72
2023-10-12T08:06:46.202Z,13.72
2023-10-12T08:11:03.093Z,13.71
2023-10-12T08:15:05.760Z,13.72
2023-10-12T08:18:43.373Z,13.70
2023-10-12T08:22:52.808Z,13.71
2023-10-12T08:27:02.557Z,13.71
2023-10-12T08:31:24.417Z,13.71
2023-10-12T08:35:27.091Z,13.73
2023-10-12T08:43:27.750Z,13.84
2023-10-12T08:47:29.120Z,13.90
2023-10-12T08:51:35.795Z,13.97
2023-10-12T08:55:27.947Z,14.00
2023-10-12T08:59:13.186Z,14.03
2023-10-12T09:03:23.497Z,14.07
2023-10-12T09:07:33.251Z,14.13
2023-10-12T09:11:25.578Z,14.20
2023-10-12T09:15:35.213Z,14.24
2023-10-12T09:19:52.664Z,14.28
2023-10-12T09:24:01.219Z,14.34
2023-10-12T09:28:11.178Z,14.37
2023-10-12T09:32:02.039Z,14.40
2023-10-12T09:36:11.866Z,14.35
2023-10-12T09:40:14.253Z,14.35
2023-10-12T09:44:16.586Z,14.38
2023-10-12T09:48:06.026Z,14.38
2023-10-12T09:52:19.058Z,14.36
2023-10-12T09:56:31.160Z,14.36
2023-10-12T10:00:41.010Z,14.34
2023-10-12T10:04:51.900Z,14.32
2023-10-12T10:08:43.996Z,14.31
2023-10-12T10:12:38.877Z,14.29
2023-10-12T10:16:26.093Z,14.31
2023-10-12T10:20:14.288Z,14.36
2023-10-12T10:24:17.147Z,14.39
2023-10-12T10:28:11.892Z,14.43
2023-10-12T10:32:27.966Z,14.46
2023-10-12T10:36:49.614Z,14.42
2023-10-12T10:41:01.810Z,14.39
2023-10-12T10:44:58.511Z,14.38
2023-10-12T10:48:59.994Z,14.41
2023-10-12T10:52:58.218Z,14.51
2023-10-12T10:56:46.560Z,14.59
2023-10-12T11:00:39.148Z,14.68
2023-10-12T11:04:54.890Z,14.78
2023-10-12T11:09:05.660Z,14.89
2023-10-12T11:12:52.509Z,14.99
2023-10-12T11:16:37.324Z,15.07
2023-10-12T11:20:31.242Z,15.16
2023-10-12T11:24:02.539Z,15.31
2023-10-12T11:27:15.030Z,15.46
2023-10-12T11:31:09.187Z,15.61
2023-10-12T11:35:29.331Z,15.79
2023-10-12T11:39:32.401Z,15.87
2023-10-12T11:43:33.814Z,15.84
2023-10-12T11:47:11.928Z,15.75
2023-10-12T11:50:45.536Z,15.62
2023-10-12T11:54:35.734Z,15.50
2023-10-12T11:58:08.763Z,15.42
2023-10-12T12:01:58.024Z,15.36
2023-10-12T12:05:34.128Z,15.28
2023-10-12T12:09:45.150Z,15.23
2023-10-12T12:13:54.671Z,15.18
2023-10-12T12:17:57.050Z,15.15
2023-10-12T12:21:47.518Z,15.14
2023-10-12T12:25:58.575Z,15.14
2023-10-12T12:30:18.995Z,15.04
2023-10-12T12:34:19.684Z,14.94
2023-10-12T12:38:12.769Z,14.90
2023-10-12T12:41:40.213Z,14.86
2023-10-12T12:45:40.803Z,14.80
2023-10-12T12:49:53.590Z,14.75
2023-10-12T12:54:04.281Z,14.70
2023-10-12T12:58:13.651Z,14.66
2023-10-12T13:02:15.921Z,14.65
2023-10-12T13:06:15.743Z,14.67
2023-10-12T13:10:25.664Z,14.84
2023-10-12T13:14:36.689Z,15.19
2023-10-12T13:18:46.513Z,15.56
2023-10-12T13:22:38.003Z,15.85
2023-10-12T13:26:21.369Z,16.03
2023-10-12T13:29:53.077Z,16.26
2023-10-12T13:33:32.498Z,16.46
2023-10-12T13:37:21.742Z,16.56
2023-10-12T13:41:14.273Z,16.61
2023-10-12T13:45:05.140Z,16.66
2023-10-12T13:48:54.914Z,16.47
2023-10-12T13:52:51.485Z,16.31
2023-10-12T13:56:35.526Z,16.16
2023-10-12T14:00:26.139Z,16.16
2023-10-12T14:18:27.327Z,15.55
2023-10-12T14:22:05.841Z,15.38
2023-10-12T14:25:28.480Z,15.20
2023-10-12T14:28:33.070Z,15.10
2023-10-12T14:31:40.503Z,15.02
2023-10-12T14:34:58.337Z,14.94
2023-10-12T14:38:26.272Z,14.93
2023-10-12T14:41:50.877Z,14.91
2023-10-12T14:44:47.418Z,14.90
2023-10-12T14:48:05.454Z,14.87
2023-10-12T14:51:21.808Z,14.86
2023-10-12T14:55:09.758Z,14.82
2023-10-12T14:58:59.290Z,14.76
2023-10-12T15:02:50.983Z,14.74
2023-10-12T15:06:40.406Z,14.66
2023-10-12T15:10:29.778Z,14.59
2023-10-12T15:14:19.042Z,14.53
2023-10-12T15:38:19.765Z,14.08
2023-10-12T15:42:10.723Z,13.87
2023-10-12T15:45:58.804Z,13.78
2023-10-12T15:49:48.260Z,13.75
2023-10-12T15:53:30.037Z,13.73
2023-10-12T15:57:41.495Z,13.71
2023-10-12T16:01:04.730Z,13.67
2023-10-12T16:04:33.850Z,13.61
2023-10-12T16:08:11.201Z,13.57
2023-10-12T16:11:23.341Z,13.54
2023-10-12T16:15:12.728Z,13.50
2023-10-12T16:18:42.265Z,13.44
2023-10-12T16:22:11.489Z,13.42
2023-10-12T16:25:53.005Z,13.40
2023-10-12T16:29:30.757Z,13.39
2023-10-12T16:33:22.980Z,13.33
2023-10-12T16:37:12.238Z,13.29
2023-10-12T16:41:01.686Z,13.25
2023-10-12T16:44:50.960Z,13.22
2023-10-12T16:48:13.495Z,13.21
2023-10-12T16:52:05.829Z,13.18
2023-10-12T16:55:54.396Z,13.16
2023-10-12T16:59:25.591Z,13.13
2023-10-12T17:02:46.719Z,13.12
2023-10-12T17:06:31.191Z,13.10
2023-10-12T17:10:03.802Z,13.11
2023-10-12T17:13:53.015Z,13.12
2023-10-12T17:17:25.362Z,13.09
2023-10-12T17:20:57.920Z,13.07
2023-10-12T17:24:36.828Z,13.05
2023-10-12T17:28:21.874Z,13.01
2023-10-12T17:32:11.642Z,12.95
2023-10-12T17:36:01.133Z,12.91
2023-10-12T17:39:40.828Z,12.93
2023-10-12T17:43:05.760Z,12.93
2023-10-12T17:46:18.290Z,12.93
2023-10-12T17:49:10.163Z,12.92
2023-10-12T17:51:54.019Z,12.92
2023-10-12T17:54:31.018Z,12.91
2023-10-12T17:57:02.266Z,12.90
2023-10-12T17:59:45.326Z,12.91
2023-10-12T18:02:31.900Z,12.90
2023-10-12T18:05:22.567Z,12.90
2023-10-12T18:07:56.563Z,12.91
2023-10-12T18:10:30.348Z,12.92
2023-10-12T18:13:26.613Z,12.93
2023-10-12T18:16:34.312Z,12.93
2023-10-12T18:19:07.749Z,12.91
2023-10-12T18:21:46.000Z,12.89
2023-10-12T18:24:18.103Z,12.89
2023-10-12T18:27:15.136Z,12.88
2023-10-12T18:30:07.315Z,12.87
2023-10-12T18:32:43.588Z,12.86
2023-10-12T18:35:37.591Z,12.85
2023-10-12T18:38:37.977Z,12.86
2023-10-12T18:41:19.245Z,12.85
2023-10-12T18:44:20.018Z,12.85
2023-10-12T18:47:55.711Z,12.82
2023-10-12T18:50:34.673Z,12.81
2023-10-12T18:53:18.954Z,12.79
2023-10-12T18:55:48.356Z,12.79
2023-10-12T18:58:25.051Z,12.77
2023-10-12T19:01:15.168Z,12.76
2023-10-12T19:04:10.839Z,12.74
2023-10-12T19:06:56.858Z,12.73
2023-10-12T19:10:07.647Z,12.72
2023-10-12T19:13:24.839Z,12.70
2023-10-12T19:16:30.742Z,12.69
2023-10-12T19:19:37.202Z,12.68
2023-10-12T19:22:26.179Z,12.66
2023-10-12T19:25:07.668Z,12.65
2023-10-12T19:28:01.323Z,12.63
2023-10-12T19:30:55.859Z,12.62
2023-10-12T19:33:33.558Z,12.62
2023-10-12T19:36:08.062Z,12.61
2023-10-12T19:38:59.890Z,12.59
2023-10-12T19:42:18.013Z,12.58
2023-10-12T19:44:55.896Z,12.55
2023-10-12T19:48:18.230Z,12.53
2023-10-12T19:50:52.114Z,12.52
2023-10-12T19:53:32.431Z,12.52
2023-10-12T19:56:14.320Z,12.52
2023-10-12T19:59:17.834Z,12.52
2023-10-12T20:02:15.309Z,12.53
2023-10-12T20:05:10.551Z,12.53
2023-10-12T20:07:54.380Z,12.54
2023-10-12T20:10:34.159Z,12.56
2023-10-12T20:13:11.669Z,12.58
2023-10-12T20:15:49.042Z,12.60
2023-10-12T20:18:25.940Z,12.61
2023-10-12T20:21:36.747Z,12.60
2023-10-12T20:24:05.426Z,12.59
2023-10-12T20:26:46.795Z,12.61
2023-10-12T20:29:54.725Z,12.62
2023-10-12T20:32:35.215Z,12.61
2023-10-12T20:35:18.631Z,12.61
2023-10-12T20:37:50.251Z,12.60
2023-10-12T20:40:53.165Z,12.59
2023-10-12T20:43:39.259Z,12.58
2023-10-12T20:46:12.878Z,12.58
2023-10-12T20:49:36.336Z,12.56
2023-10-12T20:53:09.344Z,12.54
2023-10-12T20:56:48.849Z,12.54
2023-10-12T21:00:32.393Z,12.55
2023-10-12T21:04:11.514Z,12.56
2023-10-12T21:07:45.130Z,12.55
2023-10-12T21:10:59.344Z,12.52
2023-10-12T21:14:10.355Z,12.48
2023-10-12T21:17:45.154Z,12.44
2023-10-12T21:30:07.940Z,12.43
2023-10-12T21:33:34.025Z,12.37
2023-10-12T21:37:04.006Z,12.35
2023-10-12T21:40:43.448Z,12.32
2023-10-12T21:43:42.241Z,12.30
2023-10-12T21:46:39.663Z,12.28
2023-10-12T21:50:02.047Z,12.25
2023-10-12T21:53:31.351Z,12.20
2023-10-12T21:56:56.997Z,12.17
2023-10-12T22:00:24.753Z,12.14
2023-10-12T22:03:42.917Z,12.10
2023-10-12T22:07:17.064Z,12.07
2023-10-12T22:10:37.374Z,12.05
2023-10-12T22:14:33.923Z,12.04
2023-10-12T22:18:08.896Z,12.04
2023-10-12T22:21:48.265Z,12.02
2023-10-12T22:25:25.650Z,12.01
2023-10-12T22:29:14.988Z,12.01
2023-10-12T22:33:03.976Z,12.01
2023-10-12T22:36:21.814Z,12.00
2023-10-12T22:39:30.685Z,12.00
2023-10-12T22:42:44.508Z,11.99
2023-10-12T22:46:06.305Z,11.98
2023-10-12T22:49:00.024Z,11.97
2023-10-12T22:52:19.689Z,11.96
2023-10-12T22:55:59.697Z,11.93
2023-10-12T22:59:38.051Z,11.91
2023-10-12T23:03:19.392Z,11.90
2023-10-12T23:06:40.934Z,11.89
2023-10-12T23:10:31.272Z,11.91
2023-10-12T23:14:17.013Z,11.89
2023-10-12T23:17:46.262Z,11.84
2023-10-12T23:21:30.505Z,11.79
2023-10-12T23:25:12.036Z,11.77
2023-10-12T23:29:01.390Z,11.76
2023-10-12T23:32:34.117Z,11.76
2023-10-12T23:36:22.313Z,11.79
2023-10-12T23:40:14.681Z,11.79
2023-10-12T23:43:46.760Z,11.81
2023-10-12T23:47:36.938Z,11.79
2023-10-12T23:51:26.251Z,11.79
2023-10-12T23:54:47.453Z,11.76
2023-10-12T23:58:37.828Z,11.71
